createdAt,value
2019-05-06T00:03:27.891Z,0.69
2019-05-06T00:08:34.437Z,0.85
2019-05-06T00:13:37.581Z,0.88
2019-05-06T00:18:40.944Z,0.84
2019-05-06T00:23:48.867Z,0.67
2019-05-06T00:28:59.656Z,0.71
2019-05-06T00:34:04.368Z,0.59
2019-05-06T00:39:24.225Z,0.51
2019-05-06T00:44:27.080Z,0.41
2019-05-06T00:49:30.416Z,0.34
2019-05-06T00:54:35.667Z,0.25
2019-05-06T00:59:39.101Z,0.11
2019-05-06T01:04:44.492Z,0.06
2019-05-06T01:09:47.766Z,0.04
2019-05-06T01:14:54.555Z,0.05
2019-05-06T01:19:58.001Z,-0.24
2019-05-06T01:25:01.351Z,-0.08
2019-05-06T01:30:06.335Z,-0.01
2019-05-06T01:35:09.769Z,-0.07
2019-05-06T01:40:15.002Z,-0.03
2019-05-06T01:45:18.512Z,-0.11
2019-05-06T01:50:23.491Z,-0.03
2019-05-06T01:55:27.236Z,-0.21
2019-05-06T02:00:30.577Z,-0.24
2019-05-06T02:05:34.018Z,-0.16
2019-05-06T02:10:38.193Z,-0.10
2019-05-06T02:15:41.609Z,0.09
2019-05-06T02:20:45.899Z,0.03
2019-05-06T02:25:50.877Z,0.04
2019-05-06T02:31:14.873Z,0.06
2019-05-06T02:36:36.413Z,0.31
2019-05-06T02:41:39.774Z,0.26
2019-05-06T02:46:44.809Z,0.36
2019-05-06T02:51:48.161Z,0.44
2019-05-06T02:56:53.225Z,0.49
2019-05-06T03:01:56.596Z,0.45
2019-05-06T03:07:03.432Z,0.58
2019-05-06T03:12:05.613Z,0.57
2019-05-06T03:17:08.960Z,0.45
2019-05-06T03:22:16.821Z,0.53
2019-05-06T03:27:20.197Z,0.52
2019-05-06T03:32:30.190Z,0.61
2019-05-06T03:37:28.868Z,0.65
2019-05-06T03:42:33.478Z,0.66
2019-05-06T03:47:47.441Z,0.57
2019-05-06T03:52:55.957Z,0.33
2019-05-06T03:57:57.087Z,0.33
2019-05-06T04:03:03.146Z,0.22
2019-05-06T04:08:05.677Z,0.31
2019-05-06T04:13:13.378Z,0.52
2019-05-06T04:18:17.063Z,0.54
2019-05-06T04:23:23.566Z,0.49
2019-05-06T04:28:34.441Z,0.55
2019-05-06T04:33:37.871Z,0.70
2019-05-06T04:38:43.377Z,0.91
2019-05-06T04:43:47.185Z,0.94
2019-05-06T04:48:50.597Z,1.08
2019-05-06T04:53:54.220Z,1.05
2019-05-06T04:58:57.938Z,1.37
2019-05-06T05:04:03.540Z,1.58
2019-05-06T05:09:06.605Z,1.65
2019-05-06T05:14:13.425Z,1.53
2019-05-06T05:19:17.305Z,1.71
2019-05-06T05:24:20.951Z,1.49
2019-05-06T05:29:24.452Z,1.60
2019-05-06T05:34:38.057Z,1.60
2019-05-06T05:39:33.345Z,2.05
2019-05-06T05:44:40.808Z,1.94
2019-05-06T05:50:03.083Z,1.94
2019-05-06T05:55:06.620Z,2.05
2019-05-06T06:00:12.783Z,2.39
2019-05-06T06:05:15.734Z,2.39
2019-05-06T06:10:22.583Z,2.56
2019-05-06T06:15:36.585Z,2.53
2019-05-06T06:20:50.083Z,2.87
2019-05-06T06:25:53.497Z,2.99
2019-05-06T06:31:03.032Z,3.29
2019-05-06T06:36:13.784Z,3.69
2019-05-06T06:41:17.197Z,3.92
2019-05-06T06:46:22.378Z,4.19
2019-05-06T06:51:25.986Z,4.30
2019-05-06T06:56:32.818Z,4.54
2019-05-06T07:01:42.632Z,4.78
2019-05-06T07:06:50.622Z,4.81
2019-05-06T07:11:53.947Z,5.03
2019-05-06T07:17:22.819Z,5.27
2019-05-06T07:22:27.821Z,5.41
2019-05-06T07:27:32.430Z,5.88
2019-05-06T07:32:35.857Z,6.03
2019-05-06T07:37:39.140Z,6.12
2019-05-06T07:42:48.203Z,6.17
2019-05-06T07:47:53.283Z,6.28
2019-05-06T07:53:08.642Z,6.71
2019-05-06T07:58:13.837Z,6.53
2019-05-06T08:03:17.310Z,6.72
2019-05-06T08:08:22.865Z,6.65
2019-05-06T08:13:25.649Z,6.60
2019-05-06T08:18:28.943Z,6.72
2019-05-06T08:23:36.842Z,6.69
2019-05-06T08:28:41.546Z,6.89
2019-05-06T08:33:45.233Z,6.76
2019-05-06T08:38:58.588Z,6.92
2019-05-06T08:44:02.788Z,7.08
2019-05-06T08:49:06.166Z,7.20
2019-05-06T08:54:13.249Z,7.55
2019-05-06T08:59:17.216Z,7.84
2019-05-06T09:04:22.832Z,8.54
2019-05-06T09:09:26.251Z,7.88
2019-05-06T09:14:29.564Z,7.26
2019-05-06T09:19:33.324Z,7.36
2019-05-06T09:24:36.722Z,7.40
2019-05-06T09:29:42.923Z,7.53
2019-05-06T09:34:48.149Z,7.73
2019-05-06T09:39:53.457Z,7.92
2019-05-06T09:44:56.493Z,8.12
2019-05-06T09:50:02.521Z,8.32
2019-05-06T09:55:09.947Z,7.88
2019-05-06T10:00:14.218Z,7.68
2019-05-06T10:05:17.532Z,8.09
2019-05-06T10:10:22.340Z,7.91
2019-05-06T10:15:25.847Z,8.30
2019-05-06T10:20:29.128Z,8.25
2019-05-06T10:25:32.437Z,8.43
2019-05-06T10:30:35.786Z,8.58
2019-05-06T10:35:39.073Z,8.39
2019-05-06T10:41:00.987Z,8.27
2019-05-06T10:45:56.502Z,8.30
2019-05-06T10:51:13.538Z,8.25
2019-05-06T10:56:25.709Z,8.53
2019-05-06T11:01:36.143Z,8.53
2019-05-06T11:06:39.510Z,9.11
2019-05-06T11:11:42.940Z,9.20
2019-05-06T11:16:47.091Z,8.94
2019-05-06T11:21:52.931Z,9.09
2019-05-06T11:26:55.420Z,9.32
2019-05-06T11:32:02.315Z,9.25
2019-05-06T11:37:25.325Z,9.00
2019-05-06T11:42:32.613Z,9.07
2019-05-06T11:47:33.650Z,9.54
2019-05-06T11:52:37.879Z,9.45
2019-05-06T11:57:44.662Z,8.97
2019-05-06T12:02:48.906Z,9.55
2019-05-06T12:08:01.813Z,9.84
2019-05-06T12:12:57.402Z,10.24
2019-05-06T12:18:03.108Z,9.47
2019-05-06T12:23:05.718Z,9.76
2019-05-06T12:28:09.021Z,9.55
2019-05-06T12:33:28.947Z,9.90
2019-05-06T12:38:36.592Z,10.38
2019-05-06T12:43:43.008Z,10.37
2019-05-06T12:48:48.208Z,10.48
2019-05-06T12:53:52.918Z,9.41
2019-05-06T12:58:56.462Z,9.52
2019-05-06T13:04:04.583Z,9.42
2019-05-06T13:09:07.096Z,9.55
2019-05-06T13:14:12.548Z,9.49
2019-05-06T13:19:16.474Z,9.62
2019-05-06T13:24:19.970Z,9.39
2019-05-06T13:29:24.971Z,9.72
2019-05-06T13:34:28.470Z,9.73
2019-05-06T13:39:32.870Z,9.53
2019-05-06T13:44:36.448Z,9.96
2019-05-06T13:49:42.840Z,10.15
2019-05-06T13:54:46.388Z,10.43
2019-05-06T13:59:49.621Z,9.49
2019-05-06T14:04:52.989Z,9.35
2019-05-06T14:09:56.314Z,9.23
2019-05-06T14:15:00.570Z,9.02
2019-05-06T14:20:05.010Z,9.00
2019-05-06T14:25:12.804Z,8.81
2019-05-06T14:30:22.810Z,8.78
2019-05-06T14:35:26.227Z,8.93
2019-05-06T14:40:33.095Z,9.11
2019-05-06T14:45:36.138Z,9.16
2019-05-06T14:50:46.078Z,9.51
2019-05-06T14:55:44.522Z,9.71
2019-05-06T15:00:47.794Z,9.55
2019-05-06T15:05:51.096Z,9.94
2019-05-06T15:10:54.412Z,9.84
2019-05-06T15:15:57.750Z,10.29
2019-05-06T15:21:29.339Z,10.71
2019-05-06T15:26:06.094Z,9.92
2019-05-06T15:31:29.547Z,9.64
2019-05-06T15:36:34.493Z,9.47
2019-05-06T15:41:37.990Z,9.48
2019-05-06T15:46:43.076Z,9.43
2019-05-06T15:51:46.514Z,9.13
2019-05-06T15:56:49.890Z,9.18
2019-05-06T16:01:53.355Z,9.20
2019-05-06T16:06:56.725Z,9.12
2019-05-06T16:12:02.747Z,8.98
2019-05-06T16:17:05.148Z,9.18
2019-05-06T16:22:08.522Z,9.04
2019-05-06T16:27:12.446Z,9.06
2019-05-06T16:32:15.829Z,8.86
2019-05-06T16:37:19.137Z,8.83
2019-05-06T16:42:22.600Z,8.85
2019-05-06T16:47:38.363Z,8.66
2019-05-06T16:52:44.822Z,8.68
2019-05-06T16:57:52.470Z,8.57
2019-05-06T17:03:03.395Z,8.54
2019-05-06T17:08:06.707Z,8.53
2019-05-06T17:13:12.500Z,8.46
2019-05-06T17:18:15.049Z,8.40
2019-05-06T17:23:18.646Z,8.33
2019-05-06T17:28:33.523Z,8.36
2019-05-06T17:33:42.819Z,8.33
2019-05-06T17:38:47.664Z,8.28
2019-05-06T17:43:52.099Z,8.31
2019-05-06T17:49:02.248Z,8.26
2019-05-06T17:54:05.694Z,8.18
2019-05-06T17:59:08.998Z,8.16
2019-05-06T18:04:12.632Z,8.07
2019-05-06T18:09:16.047Z,8.01
2019-05-06T18:14:19.370Z,8.01
2019-05-06T18:19:22.663Z,7.88
2019-05-06T18:24:25.949Z,7.85
2019-05-06T18:29:29.246Z,7.72
2019-05-06T18:34:33.172Z,7.77
2019-05-06T18:39:36.509Z,7.73
2019-05-06T18:44:42.089Z,7.69
2019-05-06T18:49:44.794Z,7.66
2019-05-06T18:54:48.082Z,7.57
2019-05-06T18:59:53.313Z,7.43
2019-05-06T19:05:03.510Z,7.35
2019-05-06T19:10:23.999Z,7.26
2019-05-06T19:15:28.581Z,7.18
2019-05-06T19:20:33.794Z,7.03
2019-05-06T19:25:37.370Z,6.86
2019-05-06T19:30:40.839Z,6.70
2019-05-06T19:35:44.148Z,6.54
2019-05-06T19:40:47.448Z,6.58
2019-05-06T19:45:52.889Z,6.36
2019-05-06T19:50:55.859Z,6.38
2019-05-06T19:55:59.178Z,6.18
2019-05-06T20:01:04.083Z,6.00
2019-05-06T20:06:24.846Z,5.93
2019-05-06T20:11:33.074Z,5.83
2019-05-06T20:16:36.500Z,5.85
2019-05-06T20:21:42.232Z,5.62
2019-05-06T20:26:44.820Z,5.48
2019-05-06T20:31:48.128Z,5.51
2019-05-06T20:36:52.883Z,5.32
2019-05-06T20:41:56.265Z,5.24
2019-05-06T20:46:59.581Z,5.15
2019-05-06T20:52:02.871Z,5.09
2019-05-06T20:57:06.163Z,4.41
2019-05-06T21:02:09.452Z,4.46
2019-05-06T21:07:12.758Z,4.42
2019-05-06T21:12:16.047Z,3.95
2019-05-06T21:17:19.354Z,4.36
2019-05-06T21:22:22.653Z,4.25
2019-05-06T21:27:25.945Z,4.19
2019-05-06T21:32:29.246Z,3.57
2019-05-06T21:37:32.530Z,3.84
2019-05-06T21:42:35.830Z,3.63
2019-05-06T21:47:42.589Z,3.68
2019-05-06T21:52:45.123Z,3.54
2019-05-06T21:57:48.419Z,3.50
2019-05-06T22:02:52.981Z,3.25
2019-05-06T22:07:56.389Z,3.33
2019-05-06T22:12:59.680Z,3.41
2019-05-06T22:18:02.978Z,3.38
2019-05-06T22:23:06.287Z,3.31
2019-05-06T22:28:09.581Z,3.38
2019-05-06T22:33:12.878Z,3.27
2019-05-06T22:38:16.155Z,3.11
2019-05-06T22:43:19.433Z,3.09
2019-05-06T22:48:22.756Z,3.03
2019-05-06T22:53:26.050Z,3.14
2019-05-06T22:58:29.358Z,3.17
2019-05-06T23:03:34.594Z,3.23
2019-05-06T23:08:38.007Z,3.07
2019-05-06T23:13:41.921Z,2.73
2019-05-06T23:18:46.328Z,2.68
2019-05-06T23:23:49.609Z,2.63
2019-05-06T23:28:52.911Z,2.57
2019-05-06T23:33:56.210Z,2.17
2019-05-06T23:39:37.623Z,2.17
2019-05-06T23:45:17.146Z,2.38
2019-05-06T23:56:45.443Z,2.04
